Terminal Aerodrome Forecast
Issued by NWS

Home | Current Version | Previous Version | Graphics & Text | Print | Product List | Glossary On
Versions: 1 2 3 4 5 6 7 8 9 10 11 12 13
968
FTUS42 KMHX 111720
TAFOAJ
TAF
KOAJ 111720Z 1118/1218 28010KT P6SM SKC
     FM112300 VRB03KT P6SM SKC
     FM121000 03005KT P6SM BKN100
     FM121400 04006KT 6SM -SN OVC020
      AMD LTD TO CLD VIS AND WIND=

USA.gov is the U.S. government's official web portal to all federal, state and local government web resources and services.